createdAt,value
2018-05-12T00:01:47.980Z,18.80
2018-05-12T00:03:49.520Z,18.65
2018-05-12T00:05:51.342Z,18.79
2018-05-12T00:07:52.731Z,18.65
2018-05-12T00:09:54.492Z,18.67
2018-05-12T00:11:56.022Z,18.62
2018-05-12T00:13:57.746Z,18.65
2018-05-12T00:15:59.234Z,18.65
2018-05-12T00:18:01.627Z,18.72
2018-05-12T00:20:03.168Z,18.77
2018-05-12T00:22:04.653Z,18.68
2018-05-12T00:24:06.419Z,18.74
2018-05-12T00:26:07.972Z,18.80
2018-05-12T00:28:10.298Z,18.72
2018-05-12T00:30:11.848Z,18.64
2018-05-12T00:32:14.249Z,18.68
2018-05-12T00:34:15.754Z,18.65
2018-05-12T00:36:17.427Z,18.67
2018-05-12T00:38:19.045Z,18.67
2018-05-12T00:40:20.528Z,18.58
2018-05-12T00:42:22.903Z,18.64
2018-05-12T00:44:24.626Z,18.57
2018-05-12T00:46:26.147Z,18.64
2018-05-12T00:48:27.923Z,18.57
2018-05-12T00:50:29.468Z,18.64
2018-05-12T00:52:31.123Z,18.64
2018-05-12T00:54:32.691Z,18.61
2018-05-12T00:56:35.099Z,18.59
2018-05-12T00:58:37.406Z,18.54
2018-05-12T01:00:39.289Z,18.59
2018-05-12T01:02:40.830Z,18.62
2018-05-12T01:04:42.588Z,18.65
2018-05-12T01:06:45.019Z,18.64
2018-05-12T01:08:46.711Z,18.47
2018-05-12T01:10:48.418Z,18.50
2018-05-12T01:12:49.959Z,18.47
2018-05-12T01:14:51.728Z,18.49
2018-05-12T01:16:53.549Z,18.50
2018-05-12T01:18:55.159Z,18.50
2018-05-12T01:20:56.906Z,18.54
2018-05-12T01:22:58.333Z,18.62
2018-05-12T01:25:00.134Z,18.52
2018-05-12T01:27:01.842Z,18.54
2018-05-12T01:29:04.211Z,18.49
2018-05-12T01:31:05.919Z,18.47
2018-05-12T01:33:07.441Z,18.55
2018-05-12T01:35:09.226Z,18.52
2018-05-12T01:37:10.980Z,18.42
2018-05-12T01:39:12.692Z,18.49
2018-05-12T01:41:14.219Z,18.43
2018-05-12T01:43:15.784Z,18.43
2018-05-12T01:45:18.229Z,18.46
2018-05-12T01:47:19.661Z,18.49
2018-05-12T01:49:21.338Z,18.43
2018-05-12T01:51:23.665Z,18.43
2018-05-12T01:53:25.417Z,18.54
2018-05-12T01:55:27.840Z,18.37
2018-05-12T01:57:30.132Z,18.37
2018-05-12T01:59:31.761Z,18.39
2018-05-12T02:01:33.538Z,18.42
2018-05-12T02:03:35.255Z,18.39
2018-05-12T02:05:37.591Z,18.36
2018-05-12T02:07:39.247Z,18.33
2018-05-12T02:09:40.733Z,18.37
2018-05-12T02:11:42.259Z,18.33
2018-05-12T02:13:43.762Z,18.34
2018-05-12T02:15:45.515Z,18.36
2018-05-12T02:17:47.898Z,18.34
2018-05-12T02:19:51.122Z,18.34
2018-05-12T02:21:52.879Z,18.33
2018-05-12T02:23:55.232Z,18.25
2018-05-12T02:25:56.932Z,18.24
2018-05-12T02:27:58.766Z,18.22
2018-05-12T02:30:00.563Z,18.17
2018-05-12T02:32:02.326Z,18.24
2018-05-12T02:34:03.868Z,18.22
2018-05-12T02:36:05.535Z,18.15
2018-05-12T02:38:07.903Z,18.18
2018-05-12T02:40:09.529Z,18.06
2018-05-12T02:42:11.160Z,17.99
2018-05-12T02:44:12.718Z,17.97
2018-05-12T02:46:14.483Z,18.02
2018-05-12T02:48:16.149Z,18.06
2018-05-12T02:50:18.503Z,17.99
2018-05-12T02:52:20.287Z,17.97
2018-05-12T02:54:22.736Z,17.79
2018-05-12T02:56:24.205Z,17.79
2018-05-12T02:58:25.827Z,17.73
2018-05-12T03:00:27.504Z,17.74
2018-05-12T03:02:29.025Z,17.79
2018-05-12T03:04:31.551Z,17.78
2018-05-12T03:06:33.250Z,17.70
2018-05-12T03:08:34.684Z,17.81
2018-05-12T03:10:36.296Z,17.67
2018-05-12T03:12:37.885Z,17.74
2018-05-12T03:14:39.405Z,17.67
2018-05-12T03:16:41.074Z,17.64
2018-05-12T03:18:43.581Z,17.67
2018-05-12T03:20:45.220Z,17.55
2018-05-12T03:22:46.766Z,17.64
2018-05-12T03:24:48.955Z,17.57
2018-05-12T03:26:50.672Z,17.57
2018-05-12T03:28:52.336Z,17.57
2018-05-12T03:30:53.924Z,17.59
2018-05-12T03:32:55.650Z,17.55
2018-05-12T03:34:57.237Z,17.62
2018-05-12T03:36:58.662Z,17.57
2018-05-12T03:39:00.091Z,17.50
2018-05-12T03:41:02.640Z,17.48
2018-05-12T03:43:04.088Z,17.55
2018-05-12T03:45:05.875Z,17.48
2018-05-12T03:47:08.247Z,17.51
2018-05-12T03:49:09.973Z,17.46
2018-05-12T03:51:11.426Z,17.44
2018-05-12T03:53:13.831Z,17.40
2018-05-12T03:55:16.123Z,17.46
2018-05-12T03:57:17.875Z,17.46
2018-05-12T03:59:20.361Z,17.47
2018-05-12T04:01:22.779Z,17.36
2018-05-12T04:03:24.400Z,17.35
2018-05-12T04:05:26.645Z,17.28
2018-05-12T04:07:28.382Z,17.29
2018-05-12T04:09:30.707Z,17.32
2018-05-12T04:11:32.457Z,17.30
2018-05-12T04:13:34.997Z,17.29
2018-05-12T04:15:36.625Z,17.29
2018-05-12T04:17:39.045Z,17.29
2018-05-12T04:19:40.671Z,17.28
2018-05-12T04:21:42.367Z,17.29
2018-05-12T04:23:44.131Z,17.26
2018-05-12T04:25:45.837Z,17.28
2018-05-12T04:27:47.550Z,17.41
2018-05-12T04:29:49.262Z,17.30
2018-05-12T04:31:50.979Z,17.35
2018-05-12T04:33:52.628Z,17.40
2018-05-12T04:35:54.301Z,17.43
2018-05-12T04:38:38.621Z,17.41
2018-05-12T04:40:39.938Z,17.43
2018-05-12T04:42:41.597Z,17.43
2018-05-12T04:44:43.170Z,17.44
2018-05-12T04:46:45.751Z,17.44
2018-05-12T04:48:47.512Z,17.44
2018-05-12T04:50:49.193Z,17.46
2018-05-12T04:52:50.636Z,17.44
2018-05-12T04:54:52.398Z,17.47
2018-05-12T04:56:54.061Z,17.51
2018-05-12T04:58:55.716Z,17.51
2018-05-12T05:00:57.434Z,17.54
2018-05-12T05:03:00.020Z,17.57
2018-05-12T05:05:01.575Z,17.62
2018-05-12T05:07:03.318Z,17.64
2018-05-12T05:09:04.821Z,17.62
2018-05-12T05:11:06.800Z,17.57
2018-05-12T05:13:08.600Z,17.54
2018-05-12T05:15:10.179Z,17.62
2018-05-12T05:17:11.571Z,17.67
2018-05-12T05:19:13.142Z,17.63
2018-05-12T05:21:14.670Z,17.79
2018-05-12T05:23:16.036Z,17.76
2018-05-12T05:25:17.464Z,17.79
2018-05-12T05:27:19.815Z,17.81
2018-05-12T05:29:21.256Z,17.81
2018-05-12T05:31:22.996Z,17.88
2018-05-12T05:33:24.713Z,17.84
2018-05-12T05:35:26.382Z,18.04
2018-05-12T05:37:28.923Z,18.37
2018-05-12T05:39:30.568Z,18.62
2018-05-12T05:41:33.148Z,18.68
2018-05-12T05:43:35.745Z,18.70
2018-05-12T05:45:37.291Z,18.73
2018-05-12T05:47:38.938Z,18.87
2018-05-12T05:49:40.637Z,19.23
2018-05-12T05:51:43.101Z,19.36
2018-05-12T05:53:45.218Z,19.50
2018-05-12T05:55:46.540Z,19.58
2018-05-12T05:57:48.208Z,19.63
2018-05-12T05:59:50.642Z,19.53
2018-05-12T06:01:52.266Z,19.43
2018-05-12T06:03:53.915Z,19.58
2018-05-12T06:05:55.507Z,19.61
2018-05-12T06:07:57.812Z,19.50
2018-05-12T06:09:59.287Z,19.63
2018-05-12T06:12:01.669Z,19.65
2018-05-12T06:14:03.402Z,19.69
2018-05-12T06:16:05.144Z,20.02
2018-05-12T06:18:06.843Z,20.50
2018-05-12T06:20:08.505Z,20.79
2018-05-12T06:22:10.333Z,21.72
2018-05-12T06:24:11.834Z,23.09
2018-05-12T06:26:13.523Z,24.10
2018-05-12T06:28:15.222Z,24.47
2018-05-12T06:30:17.579Z,24.68
2018-05-12T06:32:19.227Z,24.77
2018-05-12T06:34:21.447Z,24.50
2018-05-12T06:36:23.349Z,24.31
2018-05-12T06:38:25.038Z,25.05
2018-05-12T06:40:26.518Z,25.72
2018-05-12T06:42:28.467Z,26.36
2018-05-12T06:44:30.013Z,26.96
2018-05-12T06:46:31.754Z,27.84
2018-05-12T06:48:33.553Z,28.59
2018-05-12T06:50:35.065Z,29.13
2018-05-12T06:52:36.561Z,28.96
2018-05-12T06:54:38.176Z,28.58
2018-05-12T06:56:40.548Z,28.29
2018-05-12T06:58:42.272Z,28.03
2018-05-12T07:00:44.003Z,27.51
2018-05-12T07:02:46.108Z,27.43
2018-05-12T07:04:47.651Z,27.58
2018-05-12T07:06:50.413Z,27.33
2018-05-12T07:08:52.440Z,26.69
2018-05-12T07:10:54.219Z,26.94
2018-05-12T07:12:55.954Z,26.86
2018-05-12T07:14:57.472Z,27.10
2018-05-12T07:16:58.980Z,27.91
2018-05-12T07:19:00.616Z,28.66
2018-05-12T07:21:03.109Z,28.80
2018-05-12T07:23:05.296Z,28.29
2018-05-12T07:25:07.655Z,27.50
2018-05-12T07:27:09.185Z,27.01
2018-05-12T07:29:11.018Z,26.54
2018-05-12T07:31:13.553Z,25.75
2018-05-12T07:33:15.245Z,25.30
2018-05-12T07:35:17.021Z,24.77
2018-05-12T07:37:18.507Z,24.37
2018-05-12T07:39:20.272Z,24.20
2018-05-12T07:41:21.996Z,23.86
2018-05-12T07:43:23.767Z,23.64
2018-05-12T07:45:25.288Z,23.39
2018-05-12T07:47:27.611Z,23.26
2018-05-12T07:49:29.954Z,23.15
2018-05-12T07:51:31.467Z,22.99
2018-05-12T07:53:33.898Z,22.97
2018-05-12T07:55:36.131Z,22.83
2018-05-12T07:57:37.825Z,22.68
2018-05-12T07:59:40.299Z,22.68
2018-05-12T08:01:42.051Z,22.62
2018-05-12T08:03:43.747Z,22.64
2018-05-12T08:05:46.128Z,22.68
2018-05-12T08:07:47.743Z,22.71
2018-05-12T08:09:49.592Z,22.80
2018-05-12T08:11:51.265Z,22.75
2018-05-12T08:13:52.729Z,22.83
2018-05-12T08:15:54.505Z,22.96
2018-05-12T08:17:56.859Z,23.11
2018-05-12T08:19:58.678Z,23.27
2018-05-12T08:22:00.230Z,23.34
2018-05-12T08:24:02.581Z,23.46
2018-05-12T08:26:05.296Z,23.46
2018-05-12T08:28:07.567Z,23.60
2018-05-12T08:30:09.300Z,23.72
2018-05-12T08:32:11.004Z,23.89
2018-05-12T08:34:12.648Z,23.98
2018-05-12T08:36:14.195Z,24.02
2018-05-12T08:38:15.642Z,24.17
2018-05-12T08:40:17.079Z,24.32
2018-05-12T08:42:18.564Z,24.32
2018-05-12T08:44:21.117Z,24.29
2018-05-12T08:46:22.857Z,24.47
2018-05-12T08:48:24.604Z,24.68
2018-05-12T08:50:26.295Z,24.77
2018-05-12T08:52:28.731Z,24.92
2018-05-12T08:54:30.458Z,25.15
2018-05-12T08:56:32.251Z,25.19
2018-05-12T08:58:34.612Z,25.28
2018-05-12T09:00:36.123Z,25.32
2018-05-12T09:02:37.620Z,25.31
2018-05-12T09:04:40.018Z,25.56
2018-05-12T09:06:41.880Z,25.54
2018-05-12T09:08:44.232Z,25.61
2018-05-12T09:10:45.754Z,25.52
2018-05-12T09:12:47.995Z,25.53
2018-05-12T09:14:49.562Z,25.53
2018-05-12T09:16:51.271Z,25.57
2018-05-12T09:18:53.109Z,25.54
2018-05-12T09:20:54.909Z,25.65
2018-05-12T09:22:57.100Z,25.69
2018-05-12T09:24:58.670Z,25.90
2018-05-12T09:27:00.376Z,25.89
2018-05-12T09:29:02.083Z,26.04
2018-05-12T09:31:03.597Z,26.28
2018-05-12T09:33:05.143Z,26.35
2018-05-12T09:35:06.636Z,26.37
2018-05-12T09:37:08.435Z,26.47
2018-05-12T09:39:10.773Z,26.36
2018-05-12T09:41:12.570Z,26.22
2018-05-12T09:43:14.246Z,26.39
2018-05-12T09:45:16.148Z,26.57
2018-05-12T09:47:17.679Z,26.59
2018-05-12T09:49:19.354Z,26.84
2018-05-12T09:51:21.333Z,26.95
2018-05-12T09:53:23.087Z,27.09
2018-05-12T09:55:24.992Z,27.17
2018-05-12T09:57:26.531Z,27.10
2018-05-12T09:59:28.228Z,27.14
2018-05-12T10:01:29.973Z,27.19
2018-05-12T10:03:31.771Z,27.19
2018-05-12T10:05:33.302Z,27.46
2018-05-12T10:07:35.253Z,27.67
2018-05-12T10:09:36.927Z,27.53
2018-05-12T10:11:38.549Z,27.54
2018-05-12T10:13:40.755Z,27.36
2018-05-12T10:15:42.443Z,27.06
2018-05-12T10:17:43.967Z,26.91
2018-05-12T10:19:45.538Z,26.94
2018-05-12T10:21:47.059Z,26.91
2018-05-12T10:23:48.742Z,26.77
2018-05-12T10:25:50.278Z,26.81
2018-05-12T10:27:52.270Z,27.05
2018-05-12T10:29:53.790Z,27.24
2018-05-12T10:31:55.804Z,27.59
2018-05-12T10:33:57.536Z,27.84
2018-05-12T10:35:59.402Z,28.01
2018-05-12T10:38:41.857Z,28.04
2018-05-12T10:40:43.298Z,27.94
2018-05-12T10:42:44.743Z,27.96
2018-05-12T10:44:46.198Z,27.82
2018-05-12T10:46:47.632Z,27.79
2018-05-12T10:48:49.089Z,27.84
2018-05-12T10:50:50.610Z,27.98
2018-05-12T10:52:51.975Z,27.82
2018-05-12T10:54:53.419Z,27.96
2018-05-12T10:56:54.864Z,27.80
2018-05-12T10:58:56.339Z,27.77
2018-05-12T11:00:57.748Z,27.89
2018-05-12T11:02:59.375Z,27.86
2018-05-12T11:05:00.821Z,27.88
2018-05-12T11:07:02.274Z,28.07
2018-05-12T11:09:03.705Z,28.29
2018-05-12T11:11:05.141Z,28.09
2018-05-12T11:13:06.585Z,27.95
2018-05-12T11:15:08.099Z,27.98
2018-05-12T11:17:10.129Z,28.04
2018-05-12T11:19:12.396Z,27.79
2018-05-12T11:21:14.638Z,27.82
2018-05-12T11:23:16.916Z,27.61
2018-05-12T11:25:18.391Z,27.77
2018-05-12T11:27:19.880Z,27.61
2018-05-12T11:29:21.361Z,27.61
2018-05-12T11:31:22.812Z,27.62
2018-05-12T11:33:24.304Z,27.76
2018-05-12T11:35:25.768Z,27.92
2018-05-12T11:37:27.253Z,27.77
2018-05-12T11:39:28.695Z,27.70
2018-05-12T11:41:30.139Z,27.70
2018-05-12T11:43:31.630Z,27.50
2018-05-12T11:45:33.117Z,27.43
2018-05-12T11:47:34.601Z,27.42
2018-05-12T11:49:36.051Z,27.51
2018-05-12T11:51:37.617Z,27.59
2018-05-12T11:53:39.121Z,27.42
2018-05-12T11:55:40.611Z,27.24
2018-05-12T11:57:42.086Z,27.28
2018-05-12T11:59:43.531Z,27.33
2018-05-12T12:01:45.037Z,27.50
2018-05-12T12:03:46.531Z,27.51
2018-05-12T12:05:47.955Z,27.46
2018-05-12T12:07:49.414Z,27.23
2018-05-12T12:09:50.855Z,27.20
2018-05-12T12:11:52.302Z,27.43
2018-05-12T12:13:53.741Z,27.64
2018-05-12T12:15:55.177Z,27.69
2018-05-12T12:17:56.622Z,27.79
2018-05-12T12:19:58.070Z,27.74
2018-05-12T12:21:59.532Z,27.89
2018-05-12T12:24:00.956Z,27.95
2018-05-12T12:26:02.401Z,27.91
2018-05-12T12:28:03.957Z,28.01
2018-05-12T12:30:06.266Z,28.29
2018-05-12T12:32:08.438Z,28.44
2018-05-12T12:34:09.959Z,28.51
2018-05-12T12:36:11.477Z,28.54
2018-05-12T12:38:13.167Z,28.38
2018-05-12T12:40:14.607Z,28.51
2018-05-12T12:42:16.080Z,28.66
2018-05-12T12:44:17.532Z,28.69
2018-05-12T12:46:18.991Z,28.41
2018-05-12T12:48:20.438Z,28.43
2018-05-12T12:50:21.883Z,28.25
2018-05-12T12:52:23.325Z,28.10
2018-05-12T12:54:24.769Z,28.26
2018-05-12T12:56:26.209Z,28.26
2018-05-12T12:58:27.671Z,28.29
2018-05-12T13:00:29.087Z,28.03
2018-05-12T13:02:30.530Z,27.71
2018-05-12T13:04:32.013Z,27.73
2018-05-12T13:06:33.458Z,27.61
2018-05-12T13:08:34.894Z,27.71
2018-05-12T13:10:36.338Z,27.73
2018-05-12T13:12:37.780Z,27.77
2018-05-12T13:14:39.221Z,27.62
2018-05-12T13:16:40.676Z,27.64
2018-05-12T13:18:42.132Z,27.61
2018-05-12T13:20:43.567Z,27.67
2018-05-12T13:22:45.011Z,27.67
2018-05-12T13:24:46.450Z,27.67
2018-05-12T13:26:48.385Z,27.62
2018-05-12T13:28:49.831Z,27.64
2018-05-12T13:30:51.331Z,27.43
2018-05-12T13:32:52.763Z,27.21
2018-05-12T13:34:54.212Z,27.05
2018-05-12T13:36:55.651Z,27.14
2018-05-12T13:38:57.085Z,27.23
2018-05-12T13:40:58.526Z,27.35
2018-05-12T13:42:59.967Z,27.38
2018-05-12T13:45:01.402Z,27.20
2018-05-12T13:47:02.934Z,27.33
2018-05-12T13:49:04.292Z,27.23
2018-05-12T13:51:05.742Z,27.23
2018-05-12T13:53:07.173Z,27.31
2018-05-12T13:55:08.612Z,27.26
2018-05-12T13:57:10.337Z,27.21
2018-05-12T13:59:12.509Z,27.19
2018-05-12T14:01:13.964Z,27.14
2018-05-12T14:03:15.410Z,27.14
2018-05-12T14:05:16.850Z,27.24
2018-05-12T14:07:18.344Z,27.20
2018-05-12T14:09:19.741Z,27.24
2018-05-12T14:11:21.184Z,27.28
2018-05-12T14:13:22.626Z,27.36
2018-05-12T14:15:24.060Z,27.54
2018-05-12T14:17:25.551Z,27.61
2018-05-12T14:19:26.997Z,27.50
2018-05-12T14:21:28.437Z,27.67
2018-05-12T14:23:29.878Z,27.48
2018-05-12T14:25:31.322Z,27.50
2018-05-12T14:27:32.776Z,27.41
2018-05-12T14:29:34.220Z,27.38
2018-05-12T14:31:35.663Z,27.33
2018-05-12T14:33:37.103Z,27.26
2018-05-12T14:35:38.542Z,27.26
2018-05-12T14:37:39.982Z,27.21
2018-05-12T14:39:41.419Z,27.29
2018-05-12T14:41:42.888Z,27.26
2018-05-12T14:43:44.330Z,27.26
2018-05-12T14:45:45.776Z,27.14
2018-05-12T14:47:47.215Z,27.11
2018-05-12T14:49:48.657Z,27.26
2018-05-12T14:51:50.099Z,27.26
2018-05-12T14:53:51.542Z,27.20
2018-05-12T14:55:53.023Z,27.24
2018-05-12T14:57:54.463Z,27.21
2018-05-12T14:59:55.906Z,27.31
2018-05-12T15:01:57.341Z,27.32
2018-05-12T15:03:58.824Z,27.26
2018-05-12T15:06:00.277Z,27.36
2018-05-12T15:08:02.211Z,27.38
2018-05-12T15:10:04.463Z,27.31
2018-05-12T15:12:05.954Z,27.20
2018-05-12T15:14:07.384Z,27.09
2018-05-12T15:16:08.835Z,27.13
2018-05-12T15:18:10.280Z,26.96
2018-05-12T15:20:11.721Z,27.01
2018-05-12T15:22:13.159Z,26.99
2018-05-12T15:24:14.604Z,26.96
2018-05-12T15:26:16.162Z,26.96
2018-05-12T15:28:17.606Z,26.99
2018-05-12T15:30:19.103Z,27.05
2018-05-12T15:32:20.547Z,27.06
2018-05-12T15:34:21.991Z,27.19
2018-05-12T15:36:23.425Z,27.11
2018-05-12T15:38:24.915Z,27.04
2018-05-12T15:40:26.369Z,27.13
2018-05-12T15:42:28.056Z,27.06
2018-05-12T15:44:30.159Z,27.16
2018-05-12T15:46:31.728Z,27.24
2018-05-12T15:48:33.173Z,27.10
2018-05-12T15:50:34.608Z,27.02
2018-05-12T15:52:36.049Z,27.04
2018-05-12T15:54:37.498Z,26.92
2018-05-12T15:56:38.936Z,26.96
2018-05-12T15:58:41.016Z,26.95
2018-05-12T16:00:42.652Z,26.92
2018-05-12T16:02:44.106Z,26.92
2018-05-12T16:04:45.549Z,26.86
2018-05-12T16:06:46.982Z,26.89
2018-05-12T16:08:48.423Z,26.81
2018-05-12T16:10:50.571Z,26.87
2018-05-12T16:12:51.958Z,26.80
2018-05-12T16:14:53.734Z,26.64
2018-05-12T16:16:55.191Z,26.50
2018-05-12T16:18:56.636Z,26.52
2018-05-12T16:20:58.090Z,26.55
2018-05-12T16:22:59.527Z,26.55
2018-05-12T16:25:00.961Z,26.52
2018-05-12T16:27:02.400Z,26.54
2018-05-12T16:29:03.841Z,26.49
2018-05-12T16:31:05.281Z,26.47
2018-05-12T16:33:06.717Z,26.52
2018-05-12T16:35:08.154Z,26.52
2018-05-12T16:37:09.593Z,26.42
2018-05-12T16:39:52.147Z,26.42
2018-05-12T16:41:53.848Z,26.42
2018-05-12T16:43:55.288Z,26.27
2018-05-12T16:45:56.827Z,26.24
2018-05-12T16:47:58.270Z,26.15
2018-05-12T16:50:00.236Z,26.05
2018-05-12T16:52:02.059Z,26.11
2018-05-12T16:54:03.846Z,26.02
2018-05-12T16:56:05.308Z,25.97
2018-05-12T16:58:06.751Z,25.90
2018-05-12T17:00:08.216Z,25.97
2018-05-12T17:02:09.656Z,26.02
2018-05-12T17:04:11.090Z,25.98
2018-05-12T17:06:12.968Z,25.97
2018-05-12T17:08:14.949Z,26.01
2018-05-12T17:10:16.727Z,25.94
2018-05-12T17:12:18.591Z,25.97
2018-05-12T17:14:20.097Z,25.99
2018-05-12T17:16:21.616Z,25.97
2018-05-12T17:18:23.142Z,25.98
2018-05-12T17:20:24.600Z,25.97
2018-05-12T17:22:26.265Z,25.84
2018-05-12T17:24:28.335Z,25.87
2018-05-12T17:26:30.031Z,25.89
2018-05-12T17:28:31.536Z,25.87
2018-05-12T17:30:33.328Z,25.82
2018-05-12T17:32:34.842Z,25.69
2018-05-12T17:34:36.616Z,25.69
2018-05-12T17:36:38.409Z,25.71
2018-05-12T17:38:40.393Z,25.75
2018-05-12T17:40:42.121Z,25.74
2018-05-12T17:42:43.978Z,25.72
2018-05-12T17:44:45.465Z,25.67
2018-05-12T17:46:47.402Z,25.69
2018-05-12T17:48:48.940Z,25.74
2018-05-12T17:50:50.422Z,25.71
2018-05-12T17:52:52.003Z,25.62
2018-05-12T17:54:53.649Z,25.59
2018-05-12T17:56:55.586Z,25.61
2018-05-12T17:58:57.212Z,25.65
2018-05-12T18:00:59.117Z,25.56
2018-05-12T18:03:00.591Z,25.54
2018-05-12T18:05:02.215Z,25.54
2018-05-12T18:07:03.752Z,25.49
2018-05-12T18:09:05.652Z,25.50
2018-05-12T18:11:07.490Z,25.46
2018-05-12T18:13:09.426Z,25.37
2018-05-12T18:15:11.410Z,25.22
2018-05-12T18:17:12.945Z,25.19
2018-05-12T18:19:14.645Z,25.17
2018-05-12T18:21:16.153Z,25.02
2018-05-12T18:23:17.890Z,25.10
2018-05-12T18:25:19.569Z,24.98
2018-05-12T18:27:21.206Z,24.95
2018-05-12T18:29:22.854Z,24.87
2018-05-12T18:31:24.358Z,24.94
2018-05-12T18:33:26.100Z,24.87
2018-05-12T18:35:27.879Z,24.79
2018-05-12T18:37:29.527Z,24.79
2018-05-12T18:39:31.188Z,24.76
2018-05-12T18:41:32.902Z,24.64
2018-05-12T18:43:34.719Z,24.68
2018-05-12T18:45:36.529Z,24.61
2018-05-12T18:47:38.191Z,24.59
2018-05-12T18:49:39.724Z,24.53
2018-05-12T18:51:41.788Z,24.52
2018-05-12T18:53:43.391Z,24.41
2018-05-12T18:55:45.073Z,24.37
2018-05-12T18:57:47.129Z,24.27
2018-05-12T18:59:49.068Z,24.17
2018-05-12T19:01:50.754Z,24.17
2018-05-12T19:03:52.396Z,24.14
2018-05-12T19:05:53.942Z,24.05
2018-05-12T19:07:55.812Z,24.12
2018-05-12T19:09:57.824Z,24.13
2018-05-12T19:11:59.779Z,24.12
2018-05-12T19:14:01.687Z,23.97
2018-05-12T19:16:03.640Z,24.04
2018-05-12T19:18:05.374Z,24.02
2018-05-12T19:20:06.875Z,23.92
2018-05-12T19:22:08.397Z,23.71
2018-05-12T19:24:10.072Z,23.68
2018-05-12T19:26:12.183Z,23.50
2018-05-12T19:28:13.690Z,23.47
2018-05-12T19:30:15.301Z,23.43
2018-05-12T19:32:17.303Z,23.43
2018-05-12T19:34:19.067Z,23.46
2018-05-12T19:36:21.253Z,23.47
2018-05-12T19:38:23.001Z,23.34
2018-05-12T19:40:24.551Z,23.38
2018-05-12T19:42:26.095Z,23.34
2018-05-12T19:44:28.158Z,23.23
2018-05-12T19:46:29.677Z,23.12
2018-05-12T19:48:31.112Z,23.09
2018-05-12T19:50:32.812Z,23.19
2018-05-12T19:52:34.487Z,23.11
2018-05-12T19:54:35.980Z,23.07
2018-05-12T19:56:37.977Z,22.96
2018-05-12T19:58:40.136Z,22.99
2018-05-12T20:00:41.648Z,23.09
2018-05-12T20:02:43.412Z,23.02
2018-05-12T20:04:45.243Z,23.05
2018-05-12T20:06:46.903Z,22.97
2018-05-12T20:08:49.910Z,22.97
2018-05-12T20:10:51.628Z,22.96
2018-05-12T20:12:53.155Z,22.96
2018-05-12T20:14:55.331Z,23.02
2018-05-12T20:16:56.812Z,22.94
2018-05-12T20:18:58.234Z,22.89
2018-05-12T20:20:59.667Z,22.78
2018-05-12T20:23:01.753Z,22.84
2018-05-12T20:25:03.762Z,22.72
2018-05-12T20:27:05.323Z,22.78
2018-05-12T20:29:07.501Z,22.67
2018-05-12T20:31:09.665Z,22.75
2018-05-12T20:33:11.362Z,22.68
2018-05-12T20:35:13.043Z,22.62
2018-05-12T20:37:14.777Z,22.67
2018-05-12T20:39:16.289Z,22.68
2018-05-12T20:41:17.923Z,22.60
2018-05-12T20:43:19.511Z,22.57
2018-05-12T20:45:21.265Z,22.52
2018-05-12T20:47:23.404Z,22.54
2018-05-12T20:49:25.050Z,22.52
2018-05-12T20:51:26.695Z,22.47
2018-05-12T20:53:28.234Z,22.53
2018-05-12T20:55:29.665Z,22.47
2018-05-12T20:57:31.282Z,22.52
2018-05-12T20:59:32.739Z,22.39
2018-05-12T21:01:34.813Z,22.38
2018-05-12T21:03:36.557Z,22.35
2018-05-12T21:05:38.274Z,22.37
2018-05-12T21:07:39.995Z,22.34
2018-05-12T21:09:41.678Z,22.22
2018-05-12T21:11:43.094Z,22.31
2018-05-12T21:13:44.793Z,22.17
2018-05-12T21:15:46.471Z,22.28
2018-05-12T21:17:48.230Z,22.25
2018-05-12T21:19:49.755Z,22.13
2018-05-12T21:21:51.439Z,22.07
2018-05-12T21:23:53.192Z,22.07
2018-05-12T21:25:54.633Z,22.13
2018-05-12T21:27:56.348Z,22.04
2018-05-12T21:29:57.872Z,22.10
2018-05-12T21:31:59.992Z,22.10
2018-05-12T21:34:02.044Z,22.04
2018-05-12T21:36:04.232Z,22.02
2018-05-12T21:38:06.296Z,22.06
2018-05-12T21:40:07.898Z,21.99
2018-05-12T21:42:09.912Z,21.95
2018-05-12T21:44:11.673Z,21.97
2018-05-12T21:46:13.522Z,21.94
2018-05-12T21:48:15.223Z,21.94
2018-05-12T21:50:16.728Z,21.82
2018-05-12T21:52:18.204Z,21.90
2018-05-12T21:54:19.868Z,21.92
2018-05-12T21:56:21.708Z,21.75
2018-05-12T21:58:23.540Z,21.78
2018-05-12T22:00:25.175Z,21.76
2018-05-12T22:02:27.357Z,21.72
2018-05-12T22:04:29.063Z,21.72
2018-05-12T22:06:31.146Z,21.71
2018-05-12T22:08:32.818Z,21.71
2018-05-12T22:10:34.496Z,21.75
2018-05-12T22:12:36.185Z,21.83
2018-05-12T22:14:37.686Z,21.75
2018-05-12T22:16:39.126Z,21.76
2018-05-12T22:18:40.636Z,21.75
2018-05-12T22:20:41.987Z,21.72
2018-05-12T22:22:43.419Z,21.74
2018-05-12T22:24:44.844Z,21.75
2018-05-12T22:26:46.635Z,21.72
2018-05-12T22:28:48.718Z,21.71
2018-05-12T22:30:50.244Z,21.71
2018-05-12T22:32:51.920Z,21.60
2018-05-12T22:34:53.695Z,21.50
2018-05-12T22:36:55.803Z,21.53
2018-05-12T22:38:57.261Z,21.51
2018-05-12T22:40:59.516Z,21.50
2018-05-12T22:43:01.288Z,21.42
2018-05-12T22:45:02.799Z,21.48
2018-05-12T22:47:04.958Z,21.35
2018-05-12T22:49:07.107Z,21.32
2018-05-12T22:51:08.596Z,21.41
2018-05-12T22:53:10.217Z,21.29
2018-05-12T22:55:12.461Z,21.36
2018-05-12T22:57:13.916Z,21.39
2018-05-12T22:59:15.605Z,21.36
2018-05-12T23:01:17.111Z,21.23
2018-05-12T23:03:18.626Z,21.30
2018-05-12T23:05:20.103Z,21.29
2018-05-12T23:07:22.285Z,21.23
2018-05-12T23:09:23.806Z,21.09
2018-05-12T23:11:25.946Z,21.13
2018-05-12T23:13:27.447Z,21.05
2018-05-12T23:15:29.575Z,21.13
2018-05-12T23:17:31.682Z,21.01
2018-05-12T23:19:33.154Z,21.02
2018-05-12T23:21:34.850Z,20.98
2018-05-12T23:23:36.569Z,20.86
2018-05-12T23:25:38.052Z,20.95
2018-05-12T23:27:40.075Z,20.90
2018-05-12T23:29:41.825Z,20.89
2018-05-12T23:31:43.396Z,20.91
2018-05-12T23:33:45.530Z,20.84
2018-05-12T23:35:47.058Z,20.84
2018-05-12T23:37:48.870Z,20.80
2018-05-12T23:39:50.990Z,20.77
2018-05-12T23:41:52.730Z,20.74
2018-05-12T23:43:54.784Z,20.76
2018-05-12T23:45:56.334Z,20.68
2018-05-12T23:47:57.859Z,20.62
2018-05-12T23:49:59.597Z,20.62
2018-05-12T23:52:01.093Z,20.64
2018-05-12T23:54:02.866Z,20.64
2018-05-12T23:56:04.582Z,20.69
2018-05-12T23:58:06.723Z,20.62
